createdAt,value
2023-02-04T00:00:17.442Z,54.96
2023-02-04T00:02:44.569Z,54.77
2023-02-04T00:05:12.422Z,54.98
2023-02-04T00:07:41.367Z,54.97
2023-02-04T00:10:10.278Z,55.04
2023-02-04T00:12:37.586Z,55.16
2023-02-04T00:15:05.262Z,55.14
2023-02-04T00:17:32.342Z,55.23
2023-02-04T00:19:59.356Z,55.31
2023-02-04T00:22:28.660Z,55.39
2023-02-04T00:24:55.665Z,55.50
2023-02-04T00:27:23.160Z,55.36
2023-02-04T00:29:50.082Z,55.37
2023-02-04T00:32:17.296Z,55.52
2023-02-04T00:34:44.190Z,55.50
2023-02-04T00:37:11.072Z,55.66
2023-02-04T00:39:38.487Z,55.58
2023-02-04T00:42:06.082Z,55.66
2023-02-04T00:44:33.174Z,55.75
2023-02-04T00:47:00.153Z,55.90
2023-02-04T00:49:27.059Z,55.79
2023-02-04T00:51:54.156Z,55.86
2023-02-04T00:54:21.006Z,55.91
2023-02-04T00:56:47.962Z,55.92
2023-02-04T00:59:14.835Z,56.01
2023-02-04T01:01:41.810Z,55.91
2023-02-04T01:04:08.755Z,55.93
2023-02-04T01:06:36.055Z,56.13
2023-02-04T01:09:04.347Z,56.28
2023-02-04T01:11:32.266Z,56.30
2023-02-04T01:13:59.810Z,56.09
2023-02-04T01:16:26.748Z,56.41
2023-02-04T01:18:56.106Z,56.29
2023-02-04T01:21:24.571Z,56.53
2023-02-04T01:23:51.616Z,56.41
2023-02-04T01:26:19.220Z,56.51
2023-02-04T01:28:46.399Z,56.42
2023-02-04T01:31:13.855Z,56.34
2023-02-04T01:33:40.850Z,56.43
2023-02-04T01:36:08.567Z,56.47
2023-02-04T01:38:35.408Z,56.61
2023-02-04T01:41:06.037Z,56.55
2023-02-04T01:43:34.198Z,56.56
2023-02-04T01:46:02.892Z,56.63
2023-02-04T01:48:30.663Z,56.66
2023-02-04T01:51:07.789Z,56.72
2023-02-04T01:53:36.281Z,56.62
2023-02-04T01:56:18.336Z,56.84
2023-02-04T01:58:45.757Z,56.64
2023-02-04T02:01:53.096Z,56.66
2023-02-04T02:04:31.812Z,56.94
2023-02-04T02:07:02.595Z,56.75
2023-02-04T02:09:31.739Z,56.74
2023-02-04T02:11:59.200Z,57.04
2023-02-04T02:14:26.101Z,56.91
2023-02-04T02:16:53.134Z,56.84
2023-02-04T02:19:28.946Z,56.88
2023-02-04T02:22:03.844Z,56.95
2023-02-04T02:24:32.956Z,56.95
2023-02-04T02:27:07.538Z,56.95
2023-02-04T02:29:35.702Z,56.97
2023-02-04T02:32:03.187Z,57.15
2023-02-04T02:34:30.901Z,57.29
2023-02-04T02:36:59.765Z,57.03
2023-02-04T02:39:26.900Z,57.08
2023-02-04T02:41:55.227Z,57.16
2023-02-04T02:44:22.569Z,57.18
2023-02-04T02:46:49.643Z,57.27
2023-02-04T02:49:19.072Z,57.29
2023-02-04T02:51:47.049Z,57.41
2023-02-04T02:54:24.490Z,57.33
2023-02-04T02:56:52.769Z,57.32
2023-02-04T02:59:20.122Z,57.05
2023-02-04T03:01:51.979Z,57.40
2023-02-04T03:04:20.117Z,57.29
2023-02-04T03:06:47.330Z,57.34
2023-02-04T03:09:14.406Z,57.33
2023-02-04T03:11:41.431Z,57.44
2023-02-04T03:14:08.483Z,57.24
2023-02-04T03:16:38.185Z,57.19
2023-02-04T03:19:07.248Z,57.11
2023-02-04T03:21:35.503Z,57.40
2023-02-04T03:24:02.825Z,57.14
2023-02-04T03:26:29.966Z,57.28
2023-02-04T03:28:57.086Z,57.36
2023-02-04T03:31:24.015Z,57.55
2023-02-04T03:33:51.441Z,57.32
2023-02-04T03:36:18.538Z,57.18
2023-02-04T03:38:45.392Z,57.29
2023-02-04T03:41:12.267Z,57.46
2023-02-04T03:43:39.123Z,57.43
2023-02-04T03:46:06.052Z,57.30
2023-02-04T03:48:32.934Z,57.40
2023-02-04T03:50:59.789Z,57.51
2023-02-04T03:53:26.641Z,57.38
2023-02-04T03:55:53.665Z,57.56
2023-02-04T03:58:21.629Z,57.50
2023-02-04T04:00:48.484Z,57.59
2023-02-04T04:03:15.313Z,57.41
2023-02-04T04:05:42.149Z,57.61
2023-02-04T04:08:08.984Z,57.63
2023-02-04T04:10:35.821Z,57.70
2023-02-04T04:13:02.739Z,57.64
2023-02-04T04:15:29.577Z,57.53
2023-02-04T04:17:56.527Z,57.70
2023-02-04T04:20:25.770Z,57.55
2023-02-04T04:22:53.162Z,57.56
2023-02-04T04:25:20.146Z,57.53
2023-02-04T04:27:47.112Z,57.68
2023-02-04T04:30:14.047Z,57.46
2023-02-04T04:32:40.994Z,57.72
2023-02-04T04:35:08.104Z,57.72
2023-02-04T04:37:35.554Z,57.48
2023-02-04T04:40:03.555Z,57.77
2023-02-04T04:42:30.427Z,57.73
2023-02-04T04:44:57.667Z,57.59
2023-02-04T04:47:24.600Z,57.66
2023-02-04T04:49:51.429Z,57.57
2023-02-04T04:52:18.293Z,57.66
2023-02-04T04:54:45.167Z,57.73
2023-02-04T04:57:12.035Z,57.65
2023-02-04T04:59:38.868Z,57.66
2023-02-04T05:02:05.653Z,57.77
2023-02-04T05:04:32.535Z,57.83
2023-02-04T05:06:59.475Z,57.66
2023-02-04T05:09:26.484Z,57.80
2023-02-04T05:11:53.368Z,57.88
2023-02-04T05:14:20.246Z,57.71
2023-02-04T05:16:47.130Z,57.86
2023-02-04T05:19:13.994Z,57.69
2023-02-04T05:21:41.360Z,57.78
2023-02-04T05:24:08.271Z,57.58
2023-02-04T05:26:35.046Z,57.82
2023-02-04T05:29:02.079Z,57.95
2023-02-04T05:31:29.488Z,57.61
2023-02-04T05:33:56.416Z,57.71
2023-02-04T05:36:23.339Z,58.03
2023-02-04T05:38:50.182Z,57.72
2023-02-04T05:41:17.023Z,57.72
2023-02-04T05:43:43.952Z,57.92
2023-02-04T05:46:10.865Z,58.02
2023-02-04T05:48:37.721Z,57.68
2023-02-04T05:51:04.627Z,57.94
2023-02-04T05:53:31.599Z,57.92
2023-02-04T05:55:58.442Z,57.87
2023-02-04T05:58:25.330Z,57.98
2023-02-04T06:00:52.200Z,57.81
2023-02-04T06:03:19.800Z,58.07
2023-02-04T06:05:46.811Z,57.77
2023-02-04T06:08:16.077Z,57.81
2023-02-04T06:10:42.985Z,58.00
2023-02-04T06:13:10.037Z,57.79
2023-02-04T06:15:37.241Z,57.82
2023-02-04T06:18:04.630Z,57.72
2023-02-04T06:20:31.808Z,57.97
2023-02-04T06:22:58.815Z,57.87
2023-02-04T06:25:25.754Z,57.72
2023-02-04T06:27:52.669Z,57.97
2023-02-04T06:30:19.855Z,58.02
2023-02-04T06:32:46.726Z,57.81
2023-02-04T06:35:15.500Z,57.96
2023-02-04T06:37:42.737Z,57.85
2023-02-04T06:40:10.680Z,57.99
2023-02-04T06:42:37.521Z,57.67
2023-02-04T06:45:05.002Z,57.86
2023-02-04T06:47:31.961Z,58.00
2023-02-04T06:49:58.945Z,58.00
2023-02-04T06:52:25.930Z,57.84
2023-02-04T06:54:52.818Z,57.96
2023-02-04T06:57:19.762Z,57.93
2023-02-04T06:59:47.501Z,57.94
2023-02-04T07:02:14.727Z,58.08
2023-02-04T07:04:45.519Z,57.92
2023-02-04T07:07:13.470Z,58.05
2023-02-04T07:09:40.882Z,58.07
2023-02-04T07:12:08.060Z,57.83
2023-02-04T07:14:35.118Z,58.02
2023-02-04T07:17:02.085Z,58.03
2023-02-04T07:19:29.130Z,57.77
2023-02-04T07:21:57.306Z,57.63
2023-02-04T07:24:24.495Z,57.77
2023-02-04T07:26:52.641Z,57.50
2023-02-04T07:29:25.212Z,57.55
2023-02-04T07:31:53.262Z,57.74
2023-02-04T07:34:21.170Z,57.70
2023-02-04T07:36:48.416Z,57.92
2023-02-04T07:39:15.664Z,58.02
2023-02-04T07:41:42.642Z,57.83
2023-02-04T07:44:09.601Z,58.26
2023-02-04T07:46:36.562Z,57.72
2023-02-04T07:49:03.506Z,57.97
2023-02-04T07:51:30.621Z,57.98
2023-02-04T07:53:57.564Z,57.77
2023-02-04T07:56:24.596Z,57.96
2023-02-04T07:58:51.482Z,58.28
2023-02-04T08:01:18.777Z,58.08
2023-02-04T08:03:45.728Z,58.28
2023-02-04T08:06:13.238Z,58.17
2023-02-04T08:08:40.288Z,58.29
2023-02-04T08:11:07.292Z,58.53
2023-02-04T08:13:34.687Z,58.72
2023-02-04T08:16:01.885Z,58.56
2023-02-04T08:18:29.301Z,58.77
2023-02-04T08:20:56.330Z,58.67
2023-02-04T08:23:23.586Z,58.67
2023-02-04T08:25:50.480Z,58.74
2023-02-04T08:28:17.526Z,58.85
2023-02-04T08:30:45.147Z,58.62
2023-02-04T08:33:12.140Z,58.54
2023-02-04T08:35:39.044Z,58.64
2023-02-04T08:38:06.009Z,58.12
2023-02-04T08:40:33.544Z,57.99
2023-02-04T08:43:00.617Z,58.19
2023-02-04T08:45:27.560Z,58.07
2023-02-04T08:47:54.393Z,58.03
2023-02-04T08:50:21.303Z,57.91
2023-02-04T08:52:48.148Z,58.06
2023-02-04T08:55:16.232Z,57.90
2023-02-04T08:57:43.184Z,58.02
2023-02-04T09:00:12.143Z,57.93
2023-02-04T09:02:39.186Z,57.90
2023-02-04T09:05:06.473Z,57.95
2023-02-04T09:07:33.473Z,57.83
2023-02-04T09:10:00.445Z,57.93
2023-02-04T09:12:27.505Z,57.76
2023-02-04T09:14:54.671Z,57.62
2023-02-04T09:17:21.681Z,58.01
2023-02-04T09:19:48.813Z,57.58
2023-02-04T09:22:15.828Z,57.68
2023-02-04T09:24:42.764Z,57.36
2023-02-04T09:27:09.739Z,57.70
2023-02-04T09:29:36.891Z,57.74
2023-02-04T09:32:04.095Z,57.84
2023-02-04T09:34:31.006Z,57.40
2023-02-04T09:36:57.916Z,57.63
2023-02-04T09:39:24.945Z,57.89
2023-02-04T09:41:54.579Z,57.40
2023-02-04T09:44:24.373Z,57.30
2023-02-04T09:46:54.440Z,57.33
2023-02-04T09:49:21.557Z,57.50
2023-02-04T09:51:50.004Z,57.19
2023-02-04T09:54:22.085Z,57.59
2023-02-04T09:56:49.732Z,57.16
2023-02-04T09:59:22.936Z,56.23
2023-02-04T10:02:00.519Z,57.22
2023-02-04T10:04:28.453Z,57.51
2023-02-04T10:06:58.800Z,57.25
2023-02-04T10:09:25.829Z,57.50
2023-02-04T10:11:52.891Z,57.23
2023-02-04T10:14:23.244Z,57.52
2023-02-04T10:16:59.379Z,57.43
2023-02-04T10:19:29.353Z,57.49
2023-02-04T10:21:57.138Z,57.63
2023-02-04T10:24:26.736Z,57.61
2023-02-04T10:26:54.757Z,57.65
2023-02-04T10:29:26.002Z,57.61
2023-02-04T10:31:53.724Z,57.79
2023-02-04T10:34:40.197Z,57.47
2023-02-04T10:37:21.548Z,57.81
2023-02-04T10:39:50.294Z,57.62
2023-02-04T10:42:22.288Z,57.59
2023-02-04T10:44:49.350Z,57.69
2023-02-04T10:47:18.832Z,57.63
2023-02-04T10:50:18.927Z,57.96
2023-02-04T10:53:16.917Z,57.84
2023-02-04T10:55:45.906Z,57.65
2023-02-04T10:58:15.865Z,57.92
2023-02-04T11:00:43.147Z,57.80
2023-02-04T11:03:18.983Z,57.93
2023-02-04T11:05:46.065Z,57.87
2023-02-04T11:08:21.579Z,57.72
2023-02-04T11:10:51.629Z,57.66
2023-02-04T11:13:27.736Z,57.54
2023-02-04T11:16:17.937Z,57.85
2023-02-04T11:18:47.249Z,57.95
2023-02-04T11:21:22.144Z,58.13
2023-02-04T11:23:49.582Z,57.99
2023-02-04T11:26:33.238Z,57.91
2023-02-04T11:29:00.203Z,57.81
2023-02-04T11:31:27.346Z,57.66
2023-02-04T11:34:18.730Z,57.59
2023-02-04T11:37:05.225Z,57.76
2023-02-04T11:39:44.273Z,57.63
2023-02-04T11:42:40.570Z,57.59
2023-02-04T11:45:16.112Z,56.67
2023-02-04T11:47:44.700Z,57.18
2023-02-04T11:50:18.247Z,57.15
2023-02-04T11:52:46.290Z,57.07
2023-02-04T11:55:14.083Z,57.18
2023-02-04T11:57:44.623Z,57.42
2023-02-04T12:00:20.863Z,56.83
2023-02-04T12:02:50.882Z,57.33
2023-02-04T12:05:20.454Z,57.28
2023-02-04T12:07:48.509Z,57.30
2023-02-04T12:10:26.871Z,57.27
2023-02-04T12:12:58.523Z,57.51
2023-02-04T12:15:33.691Z,57.69
2023-02-04T12:18:07.723Z,57.70
2023-02-04T12:20:39.170Z,57.64
2023-02-04T12:23:07.287Z,57.51
2023-02-04T12:25:34.628Z,57.55
2023-02-04T12:28:01.634Z,57.42
2023-02-04T12:30:28.575Z,57.48
2023-02-04T12:32:55.560Z,57.38
2023-02-04T12:35:22.432Z,56.57
2023-02-04T12:37:49.526Z,57.06
2023-02-04T12:40:18.605Z,57.37
2023-02-04T12:42:45.583Z,57.35
2023-02-04T12:45:14.449Z,57.69
2023-02-04T12:47:42.639Z,56.87
2023-02-04T12:50:12.335Z,56.13
2023-02-04T12:52:39.724Z,56.87
2023-02-04T12:55:09.504Z,57.08
2023-02-04T12:57:36.637Z,57.15
2023-02-04T13:00:04.856Z,57.23
2023-02-04T13:02:31.754Z,57.24
2023-02-04T13:04:58.648Z,57.12
2023-02-04T13:07:25.890Z,57.21
2023-02-04T13:09:52.954Z,57.38
2023-02-04T13:12:19.897Z,57.23
2023-02-04T13:14:47.233Z,57.45
2023-02-04T13:17:14.192Z,57.22
2023-02-04T13:19:41.153Z,57.44
2023-02-04T13:22:08.068Z,57.26
2023-02-04T13:24:35.620Z,57.26
2023-02-04T13:27:02.661Z,56.98
2023-02-04T13:29:29.555Z,56.97
2023-02-04T13:31:57.288Z,57.01
2023-02-04T13:34:24.237Z,57.12
2023-02-04T13:36:51.098Z,56.77
2023-02-04T13:39:17.961Z,56.96
2023-02-04T13:41:44.920Z,56.95
2023-02-04T13:44:12.277Z,57.05
2023-02-04T13:46:39.325Z,56.95
2023-02-04T13:49:06.510Z,56.94
2023-02-04T13:51:33.581Z,56.69
2023-02-04T13:54:00.696Z,56.61
2023-02-04T13:56:28.412Z,56.23
2023-02-04T13:58:55.435Z,56.44
2023-02-04T14:01:22.768Z,56.30
2023-02-04T14:03:49.835Z,56.11
2023-02-04T14:06:20.942Z,56.01
2023-02-04T14:08:48.555Z,55.72
2023-02-04T14:11:15.564Z,55.70
2023-02-04T14:13:42.719Z,55.62
2023-02-04T14:16:09.743Z,55.59
2023-02-04T14:18:37.299Z,55.61
2023-02-04T14:21:04.526Z,55.71
2023-02-04T14:23:31.569Z,55.32
2023-02-04T14:25:58.701Z,55.24
2023-02-04T14:28:26.110Z,55.16
2023-02-04T14:30:54.992Z,55.33
2023-02-04T14:33:23.211Z,55.23
2023-02-04T14:35:50.568Z,55.20
2023-02-04T14:38:18.820Z,54.87
2023-02-04T14:40:46.073Z,54.85
2023-02-04T14:43:13.064Z,54.64
2023-02-04T14:45:41.572Z,54.48
2023-02-04T14:48:09.134Z,54.68
2023-02-04T14:50:36.360Z,54.44
2023-02-04T14:53:03.802Z,54.18
2023-02-04T14:55:30.856Z,53.62
2023-02-04T14:57:57.824Z,53.81
2023-02-04T15:00:24.977Z,53.89
2023-02-04T15:02:52.168Z,52.87
2023-02-04T15:05:19.242Z,53.52
2023-02-04T15:07:46.208Z,53.53
2023-02-04T15:10:15.122Z,53.43
2023-02-04T15:12:42.314Z,53.80
2023-02-04T15:15:09.679Z,53.50
2023-02-04T15:17:36.713Z,53.59
2023-02-04T15:20:04.623Z,53.68
2023-02-04T15:22:31.518Z,53.43
2023-02-04T15:24:58.478Z,53.44
2023-02-04T15:27:26.088Z,53.66
2023-02-04T15:29:53.965Z,53.51
2023-02-04T15:32:20.878Z,53.54
2023-02-04T15:34:47.808Z,53.16
2023-02-04T15:37:14.752Z,53.30
2023-02-04T15:39:43.897Z,53.38
2023-02-04T15:42:11.305Z,52.42
2023-02-04T15:44:38.310Z,52.94
2023-02-04T15:47:06.511Z,53.53
2023-02-04T15:49:34.235Z,53.42
2023-02-04T15:52:02.713Z,53.52
2023-02-04T15:54:29.892Z,53.33
2023-02-04T15:56:56.934Z,53.46
2023-02-04T15:59:23.834Z,53.69
2023-02-04T16:01:51.047Z,53.33
2023-02-04T16:04:20.700Z,53.38
2023-02-04T16:06:58.199Z,53.61
2023-02-04T16:09:26.004Z,53.77
2023-02-04T16:11:52.946Z,53.63
2023-02-04T16:14:20.087Z,53.65
2023-02-04T16:16:47.074Z,53.73
2023-02-04T16:19:13.897Z,53.67
2023-02-04T16:21:41.080Z,53.66
2023-02-04T16:24:08.270Z,53.83
2023-02-04T16:26:35.233Z,53.93
2023-02-04T16:29:02.319Z,53.99
2023-02-04T16:31:29.430Z,54.00
2023-02-04T16:33:58.396Z,53.88
2023-02-04T16:36:26.565Z,53.92
2023-02-04T16:38:58.540Z,53.88
2023-02-04T16:41:27.034Z,54.16
2023-02-04T16:43:54.906Z,54.25
2023-02-04T16:46:23.694Z,54.06
2023-02-04T16:48:51.321Z,53.98
2023-02-04T16:51:18.277Z,54.00
2023-02-04T16:53:45.300Z,53.98
2023-02-04T16:56:12.588Z,54.16
2023-02-04T16:58:40.285Z,54.07
2023-02-04T17:01:07.893Z,53.91
2023-02-04T17:03:35.092Z,54.07
2023-02-04T17:06:02.824Z,53.85
2023-02-04T17:08:30.002Z,53.90
2023-02-04T17:11:16.182Z,54.07
2023-02-04T17:13:43.065Z,53.93
2023-02-04T17:16:10.056Z,54.02
2023-02-04T17:18:37.108Z,53.77
2023-02-04T17:21:04.289Z,53.78
2023-02-04T17:23:31.237Z,53.70
2023-02-04T17:25:58.312Z,53.67
2023-02-04T17:28:26.528Z,53.69
2023-02-04T17:30:53.522Z,53.90
2023-02-04T17:33:21.036Z,53.68
2023-02-04T17:35:48.141Z,53.59
2023-02-04T17:38:15.593Z,53.57
2023-02-04T17:40:43.321Z,53.73
2023-02-04T17:43:10.345Z,53.84
2023-02-04T17:45:38.161Z,53.59
2023-02-04T17:48:05.937Z,53.66
2023-02-04T17:53:23.835Z,53.63
2023-02-04T17:55:50.849Z,53.36
2023-02-04T17:58:23.988Z,53.40
2023-02-04T18:00:53.272Z,53.25
2023-02-04T18:03:23.265Z,53.21
2023-02-04T18:05:52.771Z,53.15
2023-02-04T18:08:28.231Z,53.22
2023-02-04T18:10:56.135Z,53.16
2023-02-04T18:13:32.010Z,53.47
2023-02-04T18:16:03.248Z,53.13
2023-02-04T18:18:37.408Z,53.16
2023-02-04T18:21:28.400Z,52.72
2023-02-04T18:24:30.510Z,52.60
2023-02-04T18:27:01.598Z,52.62
2023-02-04T18:29:36.138Z,52.77
2023-02-04T18:32:24.472Z,52.76
2023-02-04T18:34:54.039Z,53.09
2023-02-04T18:37:56.041Z,53.13
2023-02-04T18:40:26.877Z,53.02
2023-02-04T18:43:21.395Z,53.04
2023-02-04T18:45:48.426Z,52.93
2023-02-04T18:48:21.372Z,52.91
2023-02-04T18:50:54.621Z,52.81
2023-02-04T18:53:26.708Z,52.76
2023-02-04T18:56:01.449Z,52.72
2023-02-04T18:58:36.799Z,53.04
2023-02-04T19:01:27.909Z,53.01
2023-02-04T19:03:56.296Z,53.23
2023-02-04T19:06:27.763Z,53.04
2023-02-04T19:09:17.131Z,53.11
2023-02-04T19:11:47.348Z,52.94
2023-02-04T19:14:20.102Z,53.09
2023-02-04T19:16:48.235Z,52.99
2023-02-04T19:19:32.217Z,52.96
2023-02-04T19:21:59.504Z,52.92
2023-02-04T19:24:32.650Z,52.97
2023-02-04T19:27:02.207Z,52.93
2023-02-04T19:29:38.558Z,53.09
2023-02-04T19:32:23.087Z,53.06
2023-02-04T19:34:51.673Z,53.12
2023-02-04T19:37:26.809Z,52.80
2023-02-04T19:39:55.407Z,52.85
2023-02-04T19:42:25.332Z,52.84
2023-02-04T19:44:52.632Z,52.40
2023-02-04T19:47:25.154Z,52.46
2023-02-04T19:50:00.857Z,52.18
2023-02-04T19:52:37.716Z,52.04
2023-02-04T19:55:30.534Z,52.30
2023-02-04T19:58:20.868Z,52.41
2023-02-04T20:00:55.291Z,52.65
2023-02-04T20:03:28.164Z,52.72
2023-02-04T20:06:01.282Z,52.68
2023-02-04T20:08:45.460Z,52.80
2023-02-04T20:11:35.911Z,52.93
2023-02-04T20:14:15.320Z,52.79
2023-02-04T20:16:51.107Z,52.79
2023-02-04T20:19:30.487Z,52.97
2023-02-04T20:22:00.669Z,53.02
2023-02-04T20:24:34.670Z,52.92
2023-02-04T20:27:13.612Z,52.99
2023-02-04T20:29:41.346Z,52.93
2023-02-04T20:32:37.779Z,52.75
2023-02-04T20:35:07.999Z,52.84
2023-02-04T20:37:36.261Z,52.82
2023-02-04T20:40:22.177Z,52.65
2023-02-04T20:42:58.909Z,52.71
2023-02-04T20:45:35.612Z,52.85
2023-02-04T20:48:28.780Z,52.66
2023-02-04T20:50:57.446Z,52.86
2023-02-04T20:53:45.847Z,52.88
2023-02-04T20:56:36.321Z,53.01
2023-02-04T20:59:12.523Z,53.02
2023-02-04T21:01:50.743Z,52.89
2023-02-04T21:04:42.441Z,52.97
2023-02-04T21:07:28.892Z,52.97
2023-02-04T21:09:58.152Z,52.92
2023-02-04T21:12:27.010Z,52.83
2023-02-04T21:14:54.174Z,52.76
2023-02-04T21:17:21.881Z,52.87
2023-02-04T21:19:49.386Z,52.84
2023-02-04T21:22:16.787Z,52.75
2023-02-04T21:24:45.203Z,52.62
2023-02-04T21:27:12.505Z,52.69
2023-02-04T21:29:40.030Z,52.65
2023-02-04T21:32:08.854Z,52.67
2023-02-04T21:34:36.262Z,52.67
2023-02-04T21:37:03.552Z,52.71
2023-02-04T21:39:30.754Z,52.65
2023-02-04T21:42:13.981Z,52.60
2023-02-04T21:44:41.558Z,52.42
2023-02-04T21:47:08.973Z,52.30
2023-02-04T21:49:39.486Z,51.80
2023-02-04T21:52:08.717Z,52.12
2023-02-04T21:54:35.929Z,51.74
2023-02-04T21:57:05.005Z,52.10
2023-02-04T21:59:32.511Z,51.71
2023-02-04T22:01:59.892Z,51.91
2023-02-04T22:04:28.076Z,51.39
2023-02-04T22:06:56.528Z,51.28
2023-02-04T22:09:23.805Z,51.44
2023-02-04T22:11:51.111Z,51.40
2023-02-04T22:14:19.569Z,51.57
2023-02-04T22:16:47.784Z,51.59
2023-02-04T22:19:15.041Z,51.53
2023-02-04T22:21:42.162Z,51.71
2023-02-04T22:24:09.551Z,51.67
2023-02-04T22:26:36.954Z,51.74
2023-02-04T22:29:04.099Z,51.80
2023-02-04T22:31:31.551Z,51.82
2023-02-04T22:33:58.556Z,51.91
2023-02-04T22:36:25.796Z,52.08
2023-02-04T22:38:52.960Z,52.02
2023-02-04T22:41:20.221Z,52.34
2023-02-04T22:43:47.529Z,52.31
2023-02-04T22:46:14.740Z,52.33
2023-02-04T22:48:41.974Z,52.42
2023-02-04T22:51:09.024Z,52.26
2023-02-04T22:53:35.904Z,52.32
2023-02-04T22:56:03.112Z,52.38
2023-02-04T22:58:30.129Z,52.44
2023-02-04T23:00:57.207Z,52.63
2023-02-04T23:03:24.428Z,52.56
2023-02-04T23:05:51.847Z,52.72
2023-02-04T23:08:18.928Z,52.94
2023-02-04T23:10:46.643Z,52.78
2023-02-04T23:13:13.723Z,52.93
2023-02-04T23:15:40.767Z,52.72
2023-02-04T23:18:08.108Z,52.74
2023-02-04T23:20:36.514Z,53.03
2023-02-04T23:23:04.210Z,52.84
2023-02-04T23:25:31.736Z,52.94
2023-02-04T23:27:58.884Z,53.10
2023-02-04T23:30:25.866Z,53.02
2023-02-04T23:32:52.780Z,53.08
2023-02-04T23:35:19.644Z,53.14
2023-02-04T23:37:46.634Z,53.28
2023-02-04T23:40:13.824Z,53.29
2023-02-04T23:42:40.828Z,53.20
2023-02-04T23:45:08.158Z,53.44
2023-02-04T23:47:35.107Z,53.39
2023-02-04T23:50:01.978Z,53.35
2023-02-04T23:52:29.763Z,53.39
2023-02-04T23:54:56.728Z,53.50
2023-02-04T23:57:23.652Z,53.53
2023-02-04T23:59:50.555Z,53.52
